Time;durP1;ratioP1;P1;durP2;ratioP2;P2;SDS_P1;SDS_P2;PMS_P1;PMS_P2;Temp;Humidity;BMP_temperature;BMP_pressure;BME280_temperature;BME280_humidity;BME280_pressure;Samples;Min_cycle;Max_cycle;Signal;HPM_P1;HPM_P2
2021/05/05 00:00:19;;;;;;;8.93;4.50;;;6.80;99.90;;;;;;4931131;28;20051;-72
2021/05/05 00:02:45;;;;;;;11.35;4.75;;;6.70;99.90;;;;;;4928188;28;20597;-72
2021/05/05 00:05:13;;;;;;;10.07;4.97;;;6.70;99.90;;;;;;4923406;28;20082;-72
2021/05/05 00:07:39;;;;;;;5.32;4.55;;;6.80;99.90;;;;;;4924213;28;20024;-73
2021/05/05 00:10:06;;;;;;;8.27;5.07;;;6.80;99.90;;;;;;4929290;28;20099;-71
2021/05/05 00:12:32;;;;;;;6.00;5.05;;;6.80;99.90;;;;;;4919359;28;20694;-72
2021/05/05 00:14:58;;;;;;;9.00;5.18;;;6.80;99.90;;;;;;4927752;28;20036;-73
2021/05/05 00:17:23;;;;;;;8.32;5.47;;;6.80;99.90;;;;;;4929046;28;20774;-71
2021/05/05 00:19:49;;;;;;;8.43;4.68;;;6.80;99.90;;;;;;4929849;28;20043;-71
2021/05/05 00:22:16;;;;;;;9.00;4.70;;;6.80;99.90;;;;;;4926466;28;20049;-70
2021/05/05 00:24:41;;;;;;;10.23;4.63;;;6.70;99.90;;;;;;4927865;28;20019;-71
2021/05/05 00:27:07;;;;;;;11.30;4.45;;;6.70;99.90;;;;;;4930495;28;20035;-71
2021/05/05 00:29:33;;;;;;;10.45;4.10;;;6.60;99.90;;;;;;4928393;28;20050;-69
2021/05/05 00:31:59;;;;;;;11.40;4.00;;;6.70;99.90;;;;;;4931060;28;20119;-71
2021/05/05 00:34:24;;;;;;;10.30;3.97;;;6.70;99.90;;;;;;4931043;28;20543;-70
2021/05/05 00:36:50;;;;;;;6.35;3.88;;;6.60;99.90;;;;;;4921176;28;21017;-73
2021/05/05 00:39:16;;;;;;;9.10;4.05;;;6.60;99.90;;;;;;4936980;28;20370;-70
2021/05/05 00:41:41;;;;;;;7.30;3.75;;;6.60;99.90;;;;;;4927325;28;20027;-71
2021/05/05 00:44:07;;;;;;;7.18;3.42;;;6.50;99.90;;;;;;4937345;28;20084;-71
2021/05/05 00:46:33;;;;;;;5.78;3.80;;;6.50;99.90;;;;;;4939411;28;20091;-73
2021/05/05 00:49:00;;;;;;;8.75;3.63;;;6.50;99.90;;;;;;4932467;28;20090;-73
2021/05/05 00:51:28;;;;;;;7.32;3.72;;;6.60;99.90;;;;;;4929918;28;20548;-71
2021/05/05 00:53:53;;;;;;;7.40;3.95;;;6.60;99.90;;;;;;4953990;28;20036;-70
2021/05/05 00:56:19;;;;;;;10.77;3.83;;;6.60;99.90;;;;;;4929600;28;20452;-71
2021/05/05 00:58:44;;;;;;;9.88;3.28;;;6.60;99.90;;;;;;4928718;28;20040;-72
2021/05/05 01:01:10;;;;;;;4.85;2.97;;;6.60;99.90;;;;;;4922340;28;20027;-72
2021/05/05 01:03:36;;;;;;;13.82;3.35;;;6.60;99.90;;;;;;4917055;28;20400;-73
2021/05/05 01:06:03;;;;;;;7.22;2.45;;;6.60;99.90;;;;;;4928453;28;20051;-73
2021/05/05 01:08:31;;;;;;;10.95;3.10;;;6.60;99.90;;;;;;4931780;28;20024;-71
2021/05/05 01:10:58;;;;;;;12.25;2.67;;;6.70;99.90;;;;;;4931468;28;20044;-72
2021/05/05 01:13:24;;;;;;;8.75;2.33;;;6.70;99.90;;;;;;4934403;28;20020;-72
2021/05/05 01:15:50;;;;;;;8.88;2.22;;;6.70;99.90;;;;;;4919671;28;20028;-73
2021/05/05 01:18:15;;;;;;;6.63;1.90;;;6.70;99.90;;;;;;4930990;28;20016;-74
2021/05/05 01:20:41;;;;;;;9.38;2.65;;;6.70;99.90;;;;;;4930948;28;20082;-73
2021/05/05 01:23:07;;;;;;;6.05;2.40;;;6.80;99.90;;;;;;4928330;28;20032;-70
2021/05/05 01:25:34;;;;;;;6.43;2.40;;;6.80;99.90;;;;;;4920886;28;20032;-72
2021/05/05 01:28:00;;;;;;;10.25;2.70;;;6.80;99.90;;;;;;4936169;28;20028;-70
2021/05/05 01:30:26;;;;;;;10.10;2.60;;;6.70;99.90;;;;;;4957513;28;20032;-72
2021/05/05 01:32:52;;;;;;;8.27;2.80;;;6.70;99.90;;;;;;4933200;28;20039;-73
2021/05/05 01:35:20;;;;;;;11.25;2.58;;;6.70;99.90;;;;;;4969647;28;20030;-71
2021/05/05 01:37:48;;;;;;;15.52;2.55;;;6.70;99.90;;;;;;4935105;28;20031;-72
2021/05/05 01:40:32;;;;;;;15.18;2.85;;;6.80;99.90;;;;;;4933689;28;20032;-71
2021/05/05 01:42:59;;;;;;;7.60;2.47;;;6.80;99.90;;;;;;4942207;28;20020;-72
2021/05/05 01:45:25;;;;;;;8.80;2.47;;;6.80;99.90;;;;;;4941278;28;20024;-71
2021/05/05 01:48:01;;;;;;;9.90;2.45;;;6.80;99.90;;;;;;4940471;28;20629;-68
2021/05/05 01:50:29;;;;;;;11.55;2.45;;;6.80;99.90;;;;;;4944110;28;20031;-71
2021/05/05 01:52:55;;;;;;;11.60;2.50;;;6.80;99.90;;;;;;4932132;28;20024;-70
2021/05/05 01:55:21;;;;;;;13.32;3.00;;;6.80;99.90;;;;;;4935532;28;20038;-76
2021/05/05 01:57:48;;;;;;;8.43;2.40;;;6.60;99.90;;;;;;4943336;28;20035;-72
2021/05/05 02:00:17;;;;;;;6.57;2.22;;;6.60;99.90;;;;;;4942994;28;20047;-74
2021/05/05 02:02:43;;;;;;;9.75;3.42;;;6.50;99.90;;;;;;4934307;28;20464;-70
2021/05/05 02:05:09;;;;;;;11.77;3.72;;;6.50;99.90;;;;;;4928612;28;20054;-72
2021/05/05 02:07:35;;;;;;;10.02;3.33;;;6.40;99.90;;;;;;4929347;28;20107;-69
2021/05/05 02:10:05;;;;;;;10.50;3.95;;;6.50;99.90;;;;;;4920564;28;20047;-71
2021/05/05 02:12:31;;;;;;;16.67;3.50;;;6.50;99.90;;;;;;4924897;28;20029;-69
2021/05/05 02:14:57;;;;;;;8.00;3.42;;;6.40;99.90;;;;;;4930579;28;20043;-72
2021/05/05 02:17:22;;;;;;;12.25;3.55;;;6.50;99.90;;;;;;4934189;28;20314;-69
2021/05/05 02:19:48;;;;;;;13.25;3.42;;;6.50;99.90;;;;;;4943937;28;20066;-71
2021/05/05 02:22:14;;;;;;;12.75;3.80;;;6.50;99.90;;;;;;4941696;28;20020;-71
2021/05/05 02:24:40;;;;;;;9.73;4.32;;;6.50;99.90;;;;;;4930144;28;20416;-70
2021/05/05 02:27:06;;;;;;;14.68;4.10;;;6.50;99.90;;;;;;4928170;28;20059;-71
2021/05/05 02:29:32;;;;;;;10.60;3.38;;;6.50;99.90;;;;;;4930702;28;20046;-70
2021/05/05 02:31:58;;;;;;;14.48;3.10;;;6.50;99.90;;;;;;4934590;28;20684;-71
2021/05/05 02:34:25;;;;;;;9.27;3.15;;;6.50;99.90;;;;;;4935282;28;20035;-71
2021/05/05 02:36:51;;;;;;;18.17;3.85;;;6.50;99.90;;;;;;4933799;28;20015;-71
2021/05/05 02:39:18;;;;;;;21.83;4.20;;;6.60;99.90;;;;;;4932330;28;20031;-70
2021/05/05 02:41:44;;;;;;;20.83;3.38;;;6.60;99.90;;;;;;4946084;28;20021;-72
2021/05/05 02:44:09;;;;;;;9.32;3.33;;;6.60;99.90;;;;;;4947256;28;20373;-74
2021/05/05 02:46:36;;;;;;;13.95;3.90;;;6.70;99.90;;;;;;4919823;28;20055;-75
2021/05/05 02:49:01;;;;;;;10.38;3.40;;;6.60;99.90;;;;;;4925355;28;20095;-73
2021/05/05 02:51:27;;;;;;;14.77;3.85;;;6.60;99.90;;;;;;4932285;28;20040;-71
2021/05/05 02:53:54;;;;;;;15.77;3.20;;;6.60;99.90;;;;;;4916787;28;20086;-72
2021/05/05 02:56:20;;;;;;;4.75;1.77;;;6.50;99.90;;;;;;4941187;28;20099;-72
2021/05/05 02:58:46;;;;;;;7.07;1.70;;;6.40;99.90;;;;;;4935300;28;20044;-73
2021/05/05 03:01:11;;;;;;;7.20;1.90;;;6.30;99.90;;;;;;4934630;28;20431;-72
2021/05/05 03:03:37;;;;;;;7.82;1.85;;;6.20;99.90;;;;;;4937469;28;20049;-71
2021/05/05 03:06:03;;;;;;;5.78;1.77;;;6.20;99.90;;;;;;4935049;28;20663;-71
2021/05/05 03:08:28;;;;;;;5.45;1.70;;;6.10;99.90;;;;;;4935535;28;20060;-72
2021/05/05 03:10:54;;;;;;;5.80;1.90;;;6.10;99.90;;;;;;4924254;28;20478;-73
2021/05/05 03:13:22;;;;;;;3.25;1.90;;;6.20;99.90;;;;;;4933960;28;20035;-74
2021/05/05 03:15:48;;;;;;;9.35;1.85;;;6.20;99.90;;;;;;4933637;28;20036;-69
2021/05/05 03:18:14;;;;;;;11.98;2.22;;;6.10;99.90;;;;;;4936606;28;20032;-72
2021/05/05 03:20:41;;;;;;;2.20;1.75;;;6.00;99.90;;;;;;4935191;28;20100;-70
2021/05/05 03:23:06;;;;;;;1.95;1.85;;;5.90;99.90;;;;;;4917536;28;20339;-72
2021/05/05 03:25:34;;;;;;;3.70;2.50;;;5.80;99.90;;;;;;4937486;28;20036;-72
2021/05/05 03:28:00;;;;;;;5.25;2.72;;;5.80;99.90;;;;;;4945138;28;20038;-74
2021/05/05 03:30:25;;;;;;;6.75;3.80;;;5.70;99.90;;;;;;4939928;28;20397;-72
2021/05/05 03:32:51;;;;;;;5.40;4.05;;;5.70;99.90;;;;;;4934852;28;20074;-73
2021/05/05 03:35:17;;;;;;;5.93;3.53;;;5.70;99.90;;;;;;4925588;28;20040;-72
2021/05/05 03:37:43;;;;;;;9.68;4.45;;;5.60;99.90;;;;;;4929547;28;20099;-73
2021/05/05 03:40:09;;;;;;;5.63;4.30;;;5.60;99.90;;;;;;4924962;28;20034;-71
2021/05/05 03:42:36;;;;;;;4.95;4.55;;;5.50;99.90;;;;;;4952386;28;20102;-72
2021/05/05 03:45:03;;;;;;;7.63;5.65;;;5.50;99.90;;;;;;4929545;28;20582;-70
2021/05/05 03:47:30;;;;;;;6.63;5.32;;;5.60;99.90;;;;;;4923602;28;20055;-72
2021/05/05 03:49:56;;;;;;;13.75;5.93;;;5.60;99.90;;;;;;4917290;28;20106;-73
2021/05/05 03:52:22;;;;;;;7.20;5.40;;;5.50;99.90;;;;;;4924266;28;20778;-72
2021/05/05 03:54:47;;;;;;;6.28;5.88;;;5.50;99.90;;;;;;4926739;28;20069;-75
2021/05/05 03:57:13;;;;;;;5.43;5.03;;;5.60;99.90;;;;;;4929592;28;20142;-74
2021/05/05 03:59:39;;;;;;;9.15;5.30;;;5.50;99.90;;;;;;4919653;28;20064;-70
2021/05/05 04:02:04;;;;;;;8.07;4.93;;;5.50;99.90;;;;;;4927862;28;20054;-72
2021/05/05 04:04:30;;;;;;;5.07;4.78;;;5.50;99.90;;;;;;4932402;28;20063;-73
2021/05/05 04:06:56;;;;;;;6.53;4.60;;;5.40;99.90;;;;;;4924544;28;20031;-74
2021/05/05 04:09:24;;;;;;;6.03;4.97;;;5.40;99.90;;;;;;4919739;28;20058;-71
2021/05/05 04:11:50;;;;;;;5.10;4.60;;;5.50;99.90;;;;;;4926884;28;20128;-72
2021/05/05 04:14:15;;;;;;;6.68;5.03;;;5.50;99.90;;;;;;4929388;28;20036;-74
2021/05/05 04:16:41;;;;;;;6.68;5.00;;;5.50;99.90;;;;;;4929759;28;20028;-73
2021/05/05 04:19:07;;;;;;;6.07;4.50;;;5.50;99.90;;;;;;4929080;28;20063;-74
2021/05/05 04:21:33;;;;;;;9.05;4.55;;;5.50;99.90;;;;;;4924550;28;20043;-73
2021/05/05 04:23:59;;;;;;;5.72;3.75;;;5.50;99.90;;;;;;4930371;28;20027;-71
2021/05/05 04:26:25;;;;;;;5.80;3.50;;;5.50;99.90;;;;;;4923737;28;20020;-70
2021/05/05 04:28:51;;;;;;;4.50;4.10;;;5.50;99.90;;;;;;4919788;28;20074;-73
2021/05/05 04:31:18;;;;;;;5.00;3.38;;;5.60;99.90;;;;;;4927522;28;20706;-73
2021/05/05 04:33:47;;;;;;;5.47;3.70;;;5.60;99.90;;;;;;4942917;28;20090;-73
2021/05/05 04:36:13;;;;;;;5.03;3.40;;;5.70;99.90;;;;;;4938808;28;20042;-73
2021/05/05 04:38:40;;;;;;;6.90;3.50;;;5.70;99.90;;;;;;4917110;28;20023;-72
2021/05/05 04:41:05;;;;;;;3.50;3.25;;;5.80;99.90;;;;;;4927444;28;20081;-73
2021/05/05 04:43:31;;;;;;;2.80;2.60;;;5.80;99.90;;;;;;4931942;28;20024;-72
2021/05/05 04:45:57;;;;;;;6.35;3.38;;;5.70;99.90;;;;;;4932322;28;20047;-73
2021/05/05 04:48:22;;;;;;;2.70;2.50;;;5.70;99.90;;;;;;4956922;28;20027;-74
2021/05/05 04:50:54;;;;;;;5.00;3.17;;;5.70;99.90;;;;;;4917700;28;20032;-73
2021/05/05 04:53:19;;;;;;;4.30;4.00;;;5.80;99.90;;;;;;4918515;28;20467;-72
2021/05/05 04:55:45;;;;;;;4.88;3.53;;;5.80;99.90;;;;;;4926865;28;20042;-71
2021/05/05 04:58:11;;;;;;;4.00;3.40;;;5.80;99.90;;;;;;4917039;28;20030;-72
2021/05/05 05:00:37;;;;;;;6.72;3.67;;;5.80;99.90;;;;;;4928255;28;20023;-71
2021/05/05 05:03:03;;;;;;;4.72;3.53;;;5.80;99.90;;;;;;4945867;28;20028;-72
2021/05/05 05:05:29;;;;;;;6.55;4.30;;;5.80;99.90;;;;;;4919816;28;20020;-73
2021/05/05 05:07:55;;;;;;;6.63;3.88;;;5.80;99.90;;;;;;4935764;28;20055;-73
2021/05/05 05:10:21;;;;;;;5.60;3.80;;;5.90;99.90;;;;;;4921466;28;20581;-75
2021/05/05 05:12:47;;;;;;;9.15;4.68;;;5.90;99.90;;;;;;4919492;28;20036;-74
2021/05/05 05:15:13;;;;;;;11.80;4.35;;;5.90;99.90;;;;;;4913266;28;20036;-73
2021/05/05 05:17:39;;;;;;;9.80;4.63;;;5.90;99.90;;;;;;4922861;28;20625;-71
2021/05/05 05:20:08;;;;;;;20.40;3.70;;;5.90;99.90;;;;;;4917827;28;20111;-69
2021/05/05 05:22:35;;;;;;;8.10;3.13;;;5.90;99.90;;;;;;4912618;28;20024;-72
2021/05/05 05:25:10;;;;;;;9.13;3.80;;;5.90;99.90;;;;;;4918780;28;20024;-73
2021/05/05 05:27:37;;;;;;;15.35;3.33;;;5.90;99.90;;;;;;4915437;28;20051;-73
2021/05/05 05:30:04;;;;;;;8.07;2.63;;;5.90;99.90;;;;;;4924070;28;20020;-73
2021/05/05 05:32:29;;;;;;;13.05;3.50;;;5.90;99.90;;;;;;4922533;28;20575;-74
2021/05/05 05:34:55;;;;;;;8.55;3.70;;;6.00;99.90;;;;;;4919680;28;20029;-73
2021/05/05 05:37:22;;;;;;;14.32;3.25;;;6.00;99.90;;;;;;4938016;28;20092;-72
2021/05/05 05:39:47;;;;;;;7.78;2.80;;;6.10;99.90;;;;;;4922427;28;20038;-73
2021/05/05 05:42:14;;;;;;;16.95;2.95;;;6.10;99.90;;;;;;4940629;28;20421;-73
2021/05/05 05:44:40;;;;;;;10.93;2.72;;;6.10;99.90;;;;;;4942694;28;20032;-76
2021/05/05 05:47:06;;;;;;;12.93;3.30;;;6.20;99.90;;;;;;4928705;28;20028;-69
2021/05/05 05:49:32;;;;;;;12.10;3.33;;;6.10;99.90;;;;;;4913597;28;20094;-73
2021/05/05 05:51:58;;;;;;;11.52;3.40;;;6.00;99.90;;;;;;4916100;28;20028;-74
2021/05/05 05:54:24;;;;;;;14.38;4.70;;;5.50;99.90;;;;;;4930564;28;20028;-72
2021/05/05 05:56:49;;;;;;;6.60;4.20;;;5.30;99.90;;;;;;4941514;28;20072;-72
2021/05/05 05:59:15;;;;;;;11.85;4.05;;;5.30;99.90;;;;;;4931531;28;20039;-72
2021/05/05 06:01:41;;;;;;;12.98;5.22;;;5.40;99.90;;;;;;4937948;28;20020;-74
2021/05/05 06:04:06;;;;;;;14.73;5.35;;;5.60;99.90;;;;;;4977761;28;20139;-72
2021/05/05 06:06:32;;;;;;;21.40;5.95;;;5.80;99.90;;;;;;4927653;28;20056;-75
2021/05/05 06:08:58;;;;;;;20.48;6.53;;;6.00;99.90;;;;;;4934962;28;20028;-73
2021/05/05 06:11:24;;;;;;;16.42;6.00;;;6.10;99.90;;;;;;4934312;28;20430;-75
2021/05/05 06:13:50;;;;;;;14.07;5.82;;;6.20;99.90;;;;;;4933217;28;20027;-73
2021/05/05 06:16:18;;;;;;;18.08;6.05;;;6.30;99.90;;;;;;4933705;28;20039;-73
2021/05/05 06:18:44;;;;;;;16.60;5.95;;;6.60;99.90;;;;;;4942781;28;20444;-74
2021/05/05 06:21:10;;;;;;;17.90;5.68;;;6.70;99.90;;;;;;4924851;28;20031;-74
2021/05/05 06:23:35;;;;;;;16.40;5.80;;;6.80;99.90;;;;;;4943370;28;20024;-73
2021/05/05 06:26:01;;;;;;;18.95;6.78;;;6.90;99.90;;;;;;4943281;28;20038;-74
2021/05/05 06:28:27;;;;;;;19.70;5.20;;;7.00;99.90;;;;;;4942150;28;20031;-74
2021/05/05 06:30:54;;;;;;;17.20;4.53;;;7.10;99.90;;;;;;4942056;28;20059;-73
2021/05/05 06:33:23;;;;;;;21.88;5.65;;;7.20;99.90;;;;;;4942525;28;20032;-73
2021/05/05 06:35:48;;;;;;;18.65;4.13;;;7.50;99.90;;;;;;4944204;28;20034;-73
2021/05/05 06:38:14;;;;;;;7.68;3.83;;;7.50;99.90;;;;;;4943355;28;20071;-76
2021/05/05 06:40:40;;;;;;;16.10;3.95;;;7.60;99.90;;;;;;4948067;28;20034;-70
2021/05/05 06:43:06;;;;;;;17.90;3.60;;;7.50;99.90;;;;;;4959606;28;20082;-73
2021/05/05 06:45:31;;;;;;;19.92;3.78;;;7.40;99.90;;;;;;4939851;28;20046;-74
2021/05/05 06:47:57;;;;;;;17.63;3.88;;;7.30;99.90;;;;;;4950709;28;20020;-75
2021/05/05 06:50:23;;;;;;;20.35;3.55;;;7.30;99.90;;;;;;4951045;28;20019;-73
2021/05/05 06:52:58;;;;;;;21.77;3.42;;;7.30;99.90;;;;;;4953175;28;20019;-73
2021/05/05 06:55:23;;;;;;;11.13;3.78;;;7.20;99.90;;;;;;4950553;28;20023;-75
2021/05/05 06:57:52;;;;;;;15.73;3.63;;;7.20;99.90;;;;;;4939328;28;20056;-74
2021/05/05 07:00:19;;;;;;;21.40;4.05;;;7.20;99.90;;;;;;4946815;28;20104;-75
2021/05/05 07:02:45;;;;;;;15.73;3.10;;;7.10;99.90;;;;;;4945179;28;20016;-75
2021/05/05 07:05:12;;;;;;;15.98;3.10;;;7.00;99.90;;;;;;4938238;28;20059;-74
2021/05/05 07:07:38;;;;;;;12.20;2.88;;;6.90;99.90;;;;;;4935563;28;20028;-73
2021/05/05 07:10:06;;;;;;;12.82;2.20;;;6.90;99.90;;;;;;4947307;28;20036;-76
2021/05/05 07:12:32;;;;;;;9.52;2.13;;;6.80;99.90;;;;;;4952586;28;20138;-74
2021/05/05 07:14:58;;;;;;;12.48;2.70;;;6.80;99.90;;;;;;4955304;28;20169;-76
2021/05/05 07:17:24;;;;;;;6.60;3.10;;;6.50;99.90;;;;;;4949961;28;20028;-72
2021/05/05 07:19:51;;;;;;;13.00;3.92;;;5.60;99.90;;;;;;4942082;28;20026;-72
2021/05/05 07:22:20;;;;;;;8.10;6.25;;;5.40;99.90;;;;;;4948747;28;20031;-74
2021/05/05 07:24:46;;;;;;;10.88;4.95;;;5.10;99.90;;;;;;4952706;28;20043;-71
2021/05/05 07:27:13;;;;;;;9.50;5.38;;;5.10;99.90;;;;;;4955754;28;20031;-72
2021/05/05 07:29:40;;;;;;;12.05;6.28;;;5.10;99.90;;;;;;4941717;28;20020;-71
2021/05/05 07:32:06;;;;;;;7.10;5.72;;;5.10;99.90;;;;;;4939457;28;20185;-73
2021/05/05 07:34:34;;;;;;;7.07;4.93;;;5.20;99.90;;;;;;4931279;28;20028;-70
2021/05/05 07:37:12;;;;;;;9.65;5.80;;;5.30;99.90;;;;;;4934094;28;20201;-67
2021/05/05 07:47:44;;;;;;;16.27;6.28;;;6.30;99.90;;;;;;4926796;28;20023;-69
2021/05/05 07:50:12;;;;;;;18.02;5.80;;;6.70;99.90;;;;;;4934016;28;20532;-69
2021/05/05 07:52:38;;;;;;;15.15;6.50;;;6.90;99.90;;;;;;4932846;28;20467;-68
2021/05/05 07:55:07;;;;;;;14.75;6.40;;;7.40;99.90;;;;;;4931520;28;20027;-68
2021/05/05 07:57:33;;;;;;;27.63;6.25;;;7.50;99.90;;;;;;4924387;28;20036;-70
2021/05/05 07:59:59;;;;;;;15.90;6.05;;;7.40;99.90;;;;;;4926740;28;20085;-67
2021/05/05 08:02:25;;;;;;;11.77;5.05;;;7.40;99.90;;;;;;4923788;28;20103;-70
2021/05/05 08:04:51;;;;;;;12.05;5.50;;;7.50;99.90;;;;;;4926828;28;20078;-71
2021/05/05 08:07:21;;;;;;;9.82;4.90;;;7.60;99.90;;;;;;4911960;28;20527;-69
2021/05/05 08:09:48;;;;;;;24.48;6.03;;;7.70;99.90;;;;;;4919365;28;20043;-70
2021/05/05 08:12:14;;;;;;;19.40;5.22;;;7.70;99.90;;;;;;4917802;28;20024;-71
2021/05/05 08:14:41;;;;;;;22.95;4.57;;;7.60;99.90;;;;;;4929379;28;20035;-70
2021/05/05 08:17:08;;;;;;;10.77;3.72;;;7.40;99.90;;;;;;4915484;28;20103;-71
2021/05/05 08:19:34;;;;;;;17.60;4.88;;;7.30;99.90;;;;;;4927055;28;20082;-73
2021/05/05 08:22:00;;;;;;;17.17;5.13;;;7.20;99.90;;;;;;4923990;28;20412;-70
2021/05/05 08:24:28;;;;;;;17.20;6.13;;;7.00;99.90;;;;;;4909361;28;20119;-69
2021/05/05 08:26:55;;;;;;;10.25;5.53;;;7.00;99.90;;;;;;4920111;28;20028;-72
2021/05/05 08:29:21;;;;;;;25.60;4.88;;;7.00;99.90;;;;;;4930320;28;20028;-70
2021/05/05 08:31:47;;;;;;;18.95;6.00;;;7.00;99.90;;;;;;4928888;28;20058;-69
2021/05/05 08:34:13;;;;;;;19.10;4.93;;;7.10;99.90;;;;;;4929839;28;20411;-70
2021/05/05 08:36:38;;;;;;;20.27;5.13;;;7.40;99.90;;;;;;4928873;28;20020;-69
2021/05/05 08:39:05;;;;;;;17.98;4.40;;;7.90;99.90;;;;;;4931570;28;20024;-70
2021/05/05 08:41:32;;;;;;;13.48;4.25;;;8.10;99.90;;;;;;4942988;28;20032;-69
2021/05/05 08:43:59;;;;;;;12.75;4.50;;;8.30;99.90;;;;;;4938585;28;20020;-71
2021/05/05 08:46:25;;;;;;;8.48;3.33;;;8.40;99.90;;;;;;4918218;28;20039;-70
2021/05/05 08:48:51;;;;;;;22.58;4.30;;;8.50;99.90;;;;;;4910812;28;20028;-70
2021/05/05 08:51:17;;;;;;;8.27;1.80;;;8.50;99.90;;;;;;4913507;28;20111;-70
2021/05/05 08:53:43;;;;;;;13.15;1.60;;;8.50;99.90;;;;;;4916924;28;20046;-72
2021/05/05 08:56:10;;;;;;;9.07;2.80;;;8.50;99.90;;;;;;4916693;28;20036;-69
2021/05/05 08:58:36;;;;;;;9.95;2.00;;;8.70;99.90;;;;;;4925798;28;20028;-70
2021/05/05 09:01:04;;;;;;;15.85;3.47;;;8.60;99.90;;;;;;4929454;28;20443;-72
2021/05/05 09:03:35;;;;;;;17.48;3.22;;;8.50;99.90;;;;;;4926869;28;20484;-70
2021/05/05 09:06:04;;;;;;;10.88;2.40;;;8.30;99.90;;;;;;4917134;28;20035;-73
2021/05/05 09:08:31;;;;;;;8.77;6.90;;;7.30;99.90;;;;;;4916728;28;20047;-70
2021/05/05 09:11:03;;;;;;;8.07;6.60;;;6.30;99.90;;;;;;4923285;28;20197;-71
2021/05/05 09:13:51;;;;;;;10.20;6.10;;;6.10;99.90;;;;;;4911881;28;20068;-70
2021/05/05 09:16:30;;;;;;;12.82;5.95;;;6.00;99.90;;;;;;4918561;28;20039;-70
2021/05/05 09:19:02;;;;;;;15.55;6.43;;;6.30;99.90;;;;;;4914780;28;20103;-68
2021/05/05 09:21:29;;;;;;;10.40;6.68;;;6.90;99.90;;;;;;4916523;28;20170;-71
2021/05/05 09:24:19;;;;;;;16.55;6.57;;;7.60;99.90;;;;;;4915747;28;20142;-68
2021/05/05 09:26:50;;;;;;;16.45;6.68;;;7.80;99.90;;;;;;4916539;28;20142;-68
2021/05/05 09:29:16;;;;;;;15.63;5.78;;;8.30;99.90;;;;;;4929438;28;20042;-68
2021/05/05 09:31:43;;;;;;;14.30;6.35;;;8.50;99.90;;;;;;4919177;28;20031;-69
2021/05/05 09:34:11;;;;;;;15.65;8.80;;;8.30;99.90;;;;;;4926318;28;20048;-70
2021/05/05 09:36:56;;;;;;;20.73;6.88;;;8.00;99.90;;;;;;4931211;28;20024;-71
2021/05/05 09:39:28;;;;;;;15.52;5.93;;;7.70;99.90;;;;;;4932074;28;20024;-68
2021/05/05 09:41:53;;;;;;;13.45;5.10;;;8.00;99.90;;;;;;4949700;28;20062;-70
2021/05/05 09:44:19;;;;;;;9.75;3.60;;;8.30;99.90;;;;;;4944527;28;20040;-71
2021/05/05 09:46:47;;;;;;;9.88;3.60;;;8.30;99.90;;;;;;4930736;28;20090;-70
2021/05/05 09:49:33;;;;;;;12.90;3.50;;;8.40;99.90;;;;;;4933711;28;20093;-72
2021/05/05 09:52:12;;;;;;;5.38;2.80;;;8.70;99.90;;;;;;4932932;28;20074;-68
2021/05/05 09:54:54;;;;;;;10.38;4.18;;;8.60;99.90;;;;;;4931612;28;20141;-68
2021/05/05 09:57:21;;;;;;;13.40;4.85;;;8.40;99.90;;;;;;4931557;28;20555;-70
2021/05/05 10:00:08;;;;;;;18.63;5.35;;;8.40;99.90;;;;;;4932064;28;20032;-69
2021/05/05 10:02:49;;;;;;;14.50;5.22;;;8.30;99.90;;;;;;4923047;28;20115;-70
2021/05/05 10:05:21;;;;;;;19.05;5.53;;;8.30;99.90;;;;;;4935831;28;20108;-71
2021/05/05 10:07:57;;;;;;;13.23;4.47;;;8.10;99.90;;;;;;4933898;28;20027;-71
2021/05/05 10:10:34;;;;;;;13.68;4.35;;;7.60;99.90;;;;;;4933020;28;20541;-70
2021/05/05 10:13:03;;;;;;;9.40;7.10;;;7.30;99.90;;;;;;4935923;28;20024;-72
2021/05/05 10:15:31;;;;;;;12.43;6.70;;;7.20;99.90;;;;;;4932132;28;20024;-71
2021/05/05 10:17:57;;;;;;;11.18;5.38;;;7.30;99.90;;;;;;4936464;28;20020;-69
2021/05/05 10:20:25;;;;;;;11.80;3.83;;;7.70;99.90;;;;;;4931509;28;20020;-69
2021/05/05 10:22:56;;;;;;;9.43;2.88;;;8.00;99.90;;;;;;4928155;28;20019;-71
2021/05/05 10:25:22;;;;;;;14.60;3.58;;;8.20;99.90;;;;;;4931171;28;20028;-71
2021/05/05 10:27:48;;;;;;;14.18;4.65;;;8.50;99.90;;;;;;4929210;28;20047;-70
2021/05/05 10:30:18;;;;;;;7.30;2.92;;;8.30;99.90;;;;;;4934702;28;20055;-70
2021/05/05 10:32:45;;;;;;;7.57;3.40;;;7.90;99.90;;;;;;4935259;28;20032;-71
2021/05/05 10:35:16;;;;;;;17.40;3.88;;;8.10;99.90;;;;;;4939828;28;20028;-71
2021/05/05 10:37:48;;;;;;;13.50;3.38;;;8.40;99.90;;;;;;4937524;28;20026;-71
2021/05/05 10:40:15;;;;;;;7.78;2.15;;;8.30;99.90;;;;;;4935561;28;20561;-71
2021/05/05 10:43:12;;;;;;;12.35;1.98;;;8.40;99.90;;;;;;4951807;28;20226;-75
2021/05/05 10:45:39;;;;;;;11.40;2.58;;;8.50;99.90;;;;;;4912544;28;20036;-72
2021/05/05 10:48:13;;;;;;;11.10;2.47;;;9.10;99.90;;;;;;4937284;28;20027;-70
2021/05/05 10:51:05;;;;;;;10.38;2.75;;;9.40;99.90;;;;;;4940427;28;20032;-72
2021/05/05 10:53:39;;;;;;;8.90;2.38;;;9.30;99.90;;;;;;4941359;28;20036;-71
2021/05/05 10:56:21;;;;;;;12.25;3.30;;;9.20;99.90;;;;;;4924000;28;20032;-71
2021/05/05 10:59:00;;;;;;;21.58;3.45;;;9.40;99.90;;;;;;4933944;28;20081;-72
2021/05/05 11:01:48;;;;;;;11.98;2.72;;;9.10;99.90;;;;;;4935302;28;20031;-70
2021/05/05 11:04:14;;;;;;;12.90;3.53;;;9.00;99.90;;;;;;4916608;28;20487;-69
2021/05/05 11:06:42;;;;;;;20.58;3.95;;;8.70;99.90;;;;;;4928071;28;20031;-71
2021/05/05 11:09:14;;;;;;;16.58;3.38;;;8.60;99.90;;;;;;4926832;28;20492;-72
2021/05/05 11:11:45;;;;;;;18.17;3.67;;;9.00;99.90;;;;;;4917458;28;20495;-72
2021/05/05 11:14:24;;;;;;;14.45;2.67;;;9.20;99.90;;;;;;4918689;28;20036;-73
2021/05/05 11:16:59;;;;;;;9.95;2.35;;;9.50;99.90;;;;;;4928564;28;20806;-72
2021/05/05 11:22:09;;;;;;;14.05;3.10;;;10.00;99.90;;;;;;4915809;28;20047;-71
2021/05/05 11:24:38;;;;;;;9.50;1.98;;;10.20;99.90;;;;;;4934760;28;20487;-71
2021/05/05 11:27:06;;;;;;;11.40;2.20;;;9.90;99.90;;;;;;4932832;28;20027;-74
2021/05/05 11:29:42;;;;;;;14.25;2.58;;;9.90;99.90;;;;;;4937027;28;20034;-73
2021/05/05 11:32:13;;;;;;;20.90;2.63;;;10.00;99.90;;;;;;4938746;28;20226;-73
2021/05/05 11:34:40;;;;;;;10.80;2.83;;;10.00;99.90;;;;;;4931418;28;20038;-73
2021/05/05 11:37:12;;;;;;;17.55;3.10;;;9.80;99.90;;;;;;4939826;28;20043;-74
2021/05/05 11:39:39;;;;;;;11.32;2.30;;;9.80;99.90;;;;;;4938944;28;20023;-75
2021/05/05 11:42:11;;;;;;;14.73;1.98;;;10.10;99.90;;;;;;4940554;28;20311;-76
2021/05/05 11:44:41;;;;;;;16.13;2.88;;;10.10;99.90;;;;;;4938288;28;20071;-77
2021/05/05 11:47:15;;;;;;;14.50;3.60;;;10.20;99.90;;;;;;4926908;28;20023;-73
2021/05/05 11:49:58;;;;;;;13.70;2.20;;;9.90;99.90;;;;;;4937230;28;20091;-75
2021/05/05 11:52:27;;;;;;;8.07;2.40;;;9.50;99.90;;;;;;4936382;28;20054;-75
2021/05/05 11:54:56;;;;;;;9.90;2.72;;;9.60;99.90;;;;;;4922675;28;20031;-75
2021/05/05 11:57:28;;;;;;;10.10;1.98;;;9.70;99.90;;;;;;4937216;28;20229;-77
2021/05/05 11:59:55;;;;;;;13.65;2.33;;;10.00;99.90;;;;;;4924011;28;20060;-74
2021/05/05 12:02:22;;;;;;;10.15;2.10;;;9.80;99.90;;;;;;4935570;28;20595;-75
2021/05/05 12:04:49;;;;;;;15.63;3.33;;;9.70;99.90;;;;;;4934902;28;20020;-73
2021/05/05 12:07:19;;;;;;;13.00;3.28;;;9.50;99.90;;;;;;4933422;28;20040;-73
2021/05/05 12:09:46;;;;;;;9.77;2.33;;;9.70;99.90;;;;;;4935181;28;20054;-77
2021/05/05 12:12:27;;;;;;;15.20;2.55;;;9.70;99.90;;;;;;4932116;28;20051;-74
2021/05/05 12:15:06;;;;;;;9.52;1.88;;;9.70;99.90;;;;;;4939491;28;20050;-78
2021/05/05 12:17:57;;;;;;;8.18;2.63;;;9.80;99.90;;;;;;4947619;28;20372;-75
2021/05/05 12:20:23;;;;;;;12.93;3.15;;;9.80;99.90;;;;;;4950124;28;20082;-74
2021/05/05 12:22:57;;;;;;;14.20;2.28;;;9.70;99.90;;;;;;4946815;28;20300;-77
2021/05/05 12:25:24;;;;;;;9.55;2.47;;;9.80;99.90;;;;;;4938830;28;20031;-78
2021/05/05 12:28:20;;;;;;;12.65;2.80;;;10.10;99.90;;;;;;4935863;28;20020;-75
2021/05/05 12:30:56;;;;;;;12.75;3.10;;;10.80;99.90;;;;;;4939670;28;20059;-74
2021/05/05 12:33:32;;;;;;;17.10;3.05;;;11.00;99.90;;;;;;4936577;28;20024;-73
2021/05/05 12:36:02;;;;;;;12.63;2.30;;;10.60;99.90;;;;;;4936015;28;20077;-75
2021/05/05 12:38:34;;;;;;;15.07;2.90;;;10.30;99.90;;;;;;4923277;28;20019;-73
2021/05/05 12:41:04;;;;;;;10.82;2.03;;;10.20;99.90;;;;;;4951992;28;20049;-75
2021/05/05 12:43:30;;;;;;;8.02;2.40;;;9.90;99.90;;;;;;4927521;28;20103;-73
2021/05/05 12:45:57;;;;;;;6.57;2.47;;;10.00;99.90;;;;;;4924381;28;20020;-77
2021/05/05 12:48:29;;;;;;;13.93;3.00;;;10.00;99.90;;;;;;4933688;28;20056;-77
2021/05/05 12:51:17;;;;;;;8.40;2.08;;;10.80;99.90;;;;;;4937117;28;20036;-75
2021/05/05 12:53:54;;;;;;;14.88;2.20;;;11.20;99.90;;;;;;4923742;28;20020;-76
2021/05/05 12:56:39;;;;;;;12.65;2.40;;;10.90;99.90;;;;;;4943910;28;20035;-78
2021/05/05 12:59:06;;;;;;;14.60;3.13;;;10.30;99.90;;;;;;4940957;28;20020;-75
2021/05/05 13:01:32;;;;;;;8.07;1.85;;;10.40;99.90;;;;;;4923427;28;20020;-75
2021/05/05 13:03:59;;;;;;;9.27;2.05;;;10.50;99.90;;;;;;4939363;28;20024;-74
2021/05/05 13:06:39;;;;;;;7.32;1.95;;;10.50;99.90;;;;;;4937355;28;20476;-74